sensor_id;sensor_type;location;lat;lon;timestamp;pressure;altitude;pressure_sealevel;temperature;humidity
76331;BME280;65148;51.912;15.570;2023-12-20T00:07:44;100852.15;;;6.02;100.00
76331;BME280;65148;51.912;15.570;2023-12-20T00:22:45;100845.72;;;6.08;100.00
76331;BME280;65148;51.912;15.570;2023-12-20T00:37:45;100841.59;;;6.00;100.00
76331;BME280;65148;51.912;15.570;2023-12-20T00:52:47;100850.52;;;6.01;100.00
76331;BME280;65148;51.912;15.570;2023-12-20T01:08:09;100821.28;;;5.98;100.00
76331;BME280;65148;51.912;15.570;2023-12-20T01:23:10;100825.70;;;6.04;100.00
76331;BME280;65148;51.912;15.570;2023-12-20T01:38:11;100805.59;;;5.95;100.00
76331;BME280;65148;51.912;15.570;2023-12-20T01:53:12;100788.58;;;5.94;100.00
76331;BME280;65148;51.912;15.570;2023-12-20T02:08:34;100776.29;;;5.86;100.00
76331;BME280;65148;51.912;15.570;2023-12-20T02:23:35;100767.46;;;5.91;100.00
76331;BME280;65148;51.912;15.570;2023-12-20T02:38:36;100767.46;;;5.91;100.00
76331;BME280;65148;51.912;15.570;2023-12-20T02:53:37;100754.07;;;5.79;100.00
76331;BME280;65148;51.912;15.570;2023-12-20T03:08:57;100753.26;;;5.79;100.00
76331;BME280;65148;51.912;15.570;2023-12-20T03:23:58;100751.69;;;5.83;100.00
76331;BME280;65148;51.912;15.570;2023-12-20T03:38:59;100738.94;;;5.78;100.00
76331;BME280;65148;51.912;15.570;2023-12-20T03:54:00;100730.97;;;5.67;100.00
76331;BME280;65148;51.912;15.570;2023-12-20T04:09:26;100729.69;;;5.74;100.00
76331;BME280;65148;51.912;15.570;2023-12-20T04:24:26;100724.04;;;5.76;100.00
76331;BME280;65148;51.912;15.570;2023-12-20T04:39:27;100738.97;;;5.57;100.00
76331;BME280;65148;51.912;15.570;2023-12-20T04:54:28;100718.78;;;5.64;100.00
76331;BME280;65148;51.912;15.570;2023-12-20T05:09:46;100710.64;;;5.59;100.00
76331;BME280;65148;51.912;15.570;2023-12-20T05:24:47;100714.02;;;5.71;100.00
76331;BME280;65148;51.912;15.570;2023-12-20T05:39:48;100729.69;;;5.74;100.00
76331;BME280;65148;51.912;15.570;2023-12-20T05:54:50;100732.46;;;5.79;100.00
76331;BME280;65148;51.912;15.570;2023-12-20T06:10:10;100729.09;;;5.67;100.00
76331;BME280;65148;51.912;15.570;2023-12-20T06:25:11;100732.85;;;5.66;100.00
76331;BME280;65148;51.912;15.570;2023-12-20T06:40:12;100731.07;;;5.77;100.00
76331;BME280;65148;51.912;15.570;2023-12-20T06:55:13;100745.35;;;5.72;100.00
76331;BME280;65148;51.912;15.570;2023-12-20T07:10:32;100768.32;;;5.75;100.00
76331;BME280;65148;51.912;15.570;2023-12-20T07:25:33;100780.90;;;5.64;100.00
76331;BME280;65148;51.912;15.570;2023-12-20T07:40:34;100798.49;;;5.67;100.00
76331;BME280;65148;51.912;15.570;2023-12-20T07:55:35;100802.47;;;5.59;100.00
76331;BME280;65148;51.912;15.570;2023-12-20T08:10:56;100795.80;;;5.45;100.00
76331;BME280;65148;51.912;15.570;2023-12-20T08:26:05;100808.15;;;5.41;100.00
76331;BME280;65148;51.912;15.570;2023-12-20T08:41:07;100787.63;;;5.18;100.00
76331;BME280;65148;51.912;15.570;2023-12-20T08:56:08;100796.84;;;5.22;100.00
76331;BME280;65148;51.912;15.570;2023-12-20T09:11:20;100809.11;;;5.30;100.00
76331;BME280;65148;51.912;15.570;2023-12-20T09:26:21;100794.66;;;5.41;100.00
76331;BME280;65148;51.912;15.570;2023-12-20T09:44:39;100779.45;;;5.78;100.00
76331;BME280;65148;51.912;15.570;2023-12-20T09:59:45;100734.78;;;5.93;100.00
76331;BME280;65148;51.912;15.570;2023-12-20T10:14:45;100735.77;;;5.86;100.00
76331;BME280;65148;51.912;15.570;2023-12-20T10:30:13;100725.99;;;5.80;100.00
76331;BME280;65148;51.912;15.570;2023-12-20T10:45:15;100716.87;;;5.60;100.00
76331;BME280;65148;51.912;15.570;2023-12-20T11:00:18;100683.05;;;5.30;100.00
76331;BME280;65148;51.912;15.570;2023-12-20T11:15:21;100664.93;;;5.53;100.00
76331;BME280;65148;51.912;15.570;2023-12-20T11:45:51;100619.71;;;5.97;100.00
76331;BME280;65148;51.912;15.570;2023-12-20T12:00:53;100585.14;;;5.99;100.00
76331;BME280;65148;51.912;15.570;2023-12-20T12:16:18;100576.83;;;6.05;100.00
76331;BME280;65148;51.912;15.570;2023-12-20T12:31:20;100578.34;;;6.38;100.00
76331;BME280;65148;51.912;15.570;2023-12-20T12:46:21;100554.47;;;6.20;100.00
76331;BME280;65148;51.912;15.570;2023-12-20T13:01:22;100537.00;;;6.38;100.00
76331;BME280;65148;51.912;15.570;2023-12-20T13:16:42;100508.77;;;6.18;100.00
76331;BME280;65148;51.912;15.570;2023-12-20T13:31:46;100494.83;;;6.42;100.00
76331;BME280;65148;51.912;15.570;2023-12-20T13:46:46;100492.38;;;6.40;100.00
76331;BME280;65148;51.912;15.570;2023-12-20T14:01:51;100483.19;;;6.41;100.00
76331;BME280;65148;51.912;15.570;2023-12-20T14:17:06;100448.07;;;6.51;100.00
76331;BME280;65148;51.912;15.570;2023-12-20T14:32:07;100433.16;;;6.34;100.00
76331;BME280;65148;51.912;15.570;2023-12-20T14:47:08;100423.19;;;6.44;100.00
76331;BME280;65148;51.912;15.570;2023-12-20T15:02:10;100405.87;;;6.40;100.00
76331;BME280;65148;51.912;15.570;2023-12-20T15:17:31;100406.10;;;6.23;100.00
76331;BME280;65148;51.912;15.570;2023-12-20T15:32:32;100389.91;;;6.39;100.00
76331;BME280;65148;51.912;15.570;2023-12-20T15:47:34;100413.37;;;6.13;100.00
76331;BME280;65148;51.912;15.570;2023-12-20T16:02:39;100444.23;;;6.32;100.00
76331;BME280;65148;51.912;15.570;2023-12-20T16:17:55;100452.45;;;5.90;100.00
76331;BME280;65148;51.912;15.570;2023-12-20T16:32:56;100467.69;;;5.69;100.00
76331;BME280;65148;51.912;15.570;2023-12-20T16:47:57;100488.10;;;5.55;100.00
76331;BME280;65148;51.912;15.570;2023-12-20T17:02:58;100499.54;;;5.67;100.00
76331;BME280;65148;51.912;15.570;2023-12-20T17:18:19;100533.11;;;5.44;100.00
76331;BME280;65148;51.912;15.570;2023-12-20T17:33:20;100537.95;;;5.42;100.00
76331;BME280;65148;51.912;15.570;2023-12-20T17:48:21;100527.95;;;5.38;100.00
76331;BME280;65148;51.912;15.570;2023-12-20T18:34:08;100528.97;;;4.78;100.00
76331;BME280;65148;51.912;15.570;2023-12-20T18:49:09;100542.48;;;5.05;100.00
76331;BME280;65148;51.912;15.570;2023-12-20T19:04:29;100546.27;;;5.09;100.00
76331;BME280;65148;51.912;15.570;2023-12-20T19:19:30;100546.08;;;5.16;100.00
76331;BME280;65148;51.912;15.570;2023-12-20T19:34:31;100535.05;;;5.17;100.00
76331;BME280;65148;51.912;15.570;2023-12-20T19:49:33;100527.39;;;5.09;100.00
76331;BME280;65148;51.912;15.570;2023-12-20T20:04:55;100541.10;;;5.02;100.00
76331;BME280;65148;51.912;15.570;2023-12-20T20:19:56;100530.52;;;4.96;100.00
76331;BME280;65148;51.912;15.570;2023-12-20T20:35:00;100525.91;;;4.69;100.00
76331;BME280;65148;51.912;15.570;2023-12-20T20:50:01;100521.30;;;4.92;100.00
76331;BME280;65148;51.912;15.570;2023-12-20T21:05:20;100514.87;;;4.71;100.00
76331;BME280;65148;51.912;15.570;2023-12-20T21:20:22;100508.94;;;4.96;100.00
76331;BME280;65148;51.912;15.570;2023-12-20T21:35:23;100485.42;;;4.91;100.00
76331;BME280;65148;51.912;15.570;2023-12-20T21:50:23;100480.43;;;5.05;100.00
76331;BME280;65148;51.912;15.570;2023-12-20T22:05:44;100455.99;;;4.90;100.00
76331;BME280;65148;51.912;15.570;2023-12-20T22:20:45;100432.68;;;5.05;100.00
76331;BME280;65148;51.912;15.570;2023-12-20T22:35:46;100404.48;;;4.86;100.00
76331;BME280;65148;51.912;15.570;2023-12-20T22:50:47;100392.95;;;4.96;100.00
76331;BME280;65148;51.912;15.570;2023-12-20T23:06:15;100346.00;;;4.60;100.00
76331;BME280;65148;51.912;15.570;2023-12-20T23:21:16;100331.40;;;4.56;100.00
76331;BME280;65148;51.912;15.570;2023-12-20T23:36:17;100304.09;;;4.15;100.00
76331;BME280;65148;51.912;15.570;2023-12-20T23:51:19;100264.55;;;3.94;100.00
